createdAt,value
2024-04-25T00:01:18.049Z,3.55
2024-04-25T00:06:19.761Z,3.58
2024-04-25T00:11:22.548Z,3.65
2024-04-25T00:16:24.615Z,4.40
2024-04-25T00:21:27.078Z,3.95
2024-04-25T00:26:37.152Z,5.13
2024-04-25T00:31:39.869Z,4.53
2024-04-25T00:36:41.847Z,5.10
2024-04-25T00:41:43.515Z,4.97
2024-04-25T00:46:46.004Z,4.93
2024-04-25T00:51:49.757Z,5.60
2024-04-25T00:56:59.464Z,5.75
2024-04-25T01:07:03.828Z,4.90
2024-04-25T01:12:10.810Z,6.45
2024-04-25T01:17:15.119Z,5.25
2024-04-25T01:22:18.971Z,7.05
2024-04-25T01:27:22.912Z,5.85
2024-04-25T01:32:26.002Z,5.75
2024-04-25T01:37:29.118Z,6.05
2024-04-25T01:42:32.097Z,6.05
2024-04-25T01:47:33.880Z,5.63
2024-04-25T01:52:35.728Z,4.63
2024-04-25T01:57:38.445Z,5.45
2024-04-25T02:02:40.185Z,3.95
2024-04-25T02:07:41.877Z,3.00
2024-04-25T02:12:43.568Z,2.22
2024-04-25T02:17:45.603Z,2.20
2024-04-25T02:23:05.767Z,2.72
2024-04-25T02:28:09.020Z,2.30
2024-04-25T02:38:12.486Z,2.13
2024-04-25T02:43:14.194Z,2.15
2024-04-25T02:48:16.052Z,2.20
2024-04-25T02:53:17.823Z,2.30
2024-04-25T02:58:19.474Z,2.50
2024-04-25T03:03:21.291Z,2.05
2024-04-25T03:08:23.089Z,1.73
2024-04-25T03:13:25.154Z,2.05
2024-04-25T03:18:26.889Z,1.88
2024-04-25T03:23:28.961Z,1.90
2024-04-25T03:28:31.058Z,1.75
2024-04-25T03:33:32.952Z,2.15
2024-04-25T03:38:34.716Z,1.90
2024-04-25T03:43:36.366Z,2.28
2024-04-25T03:48:38.075Z,1.90
2024-04-25T03:53:39.847Z,1.83
2024-04-25T03:58:41.670Z,2.15
2024-04-25T04:03:43.376Z,2.03
2024-04-25T04:08:45.060Z,1.65
2024-04-25T04:13:46.937Z,2.10
2024-04-25T04:18:49.076Z,1.73
2024-04-25T04:23:50.994Z,1.50
2024-04-25T04:28:52.641Z,1.70
2024-04-25T04:33:54.414Z,2.30
2024-04-25T04:38:59.512Z,2.13
2024-04-25T04:44:01.499Z,1.90
2024-04-25T04:49:03.303Z,2.05
2024-04-25T04:54:05.292Z,2.35
2024-04-25T04:59:06.964Z,2.42
2024-04-25T05:04:09.609Z,2.20
2024-04-25T05:09:11.280Z,2.40
2024-04-25T05:14:12.979Z,2.63
2024-04-25T05:19:14.721Z,2.42
2024-04-25T05:24:16.392Z,2.10
2024-04-25T05:29:18.172Z,3.28
2024-04-25T05:34:19.849Z,3.00
2024-04-25T05:39:21.509Z,1.98
2024-04-25T05:44:23.227Z,1.88
2024-04-25T05:49:25.374Z,1.83
2024-04-25T05:54:27.030Z,1.77
2024-04-25T05:59:28.710Z,1.95
2024-04-25T06:04:33.542Z,1.60
2024-04-25T06:09:35.251Z,1.70
2024-04-25T06:14:36.966Z,2.00
2024-04-25T06:19:38.690Z,1.60
2024-04-25T06:24:40.374Z,1.67
2024-04-25T06:29:42.202Z,1.83
2024-04-25T06:34:44.244Z,2.10
2024-04-25T06:39:45.916Z,1.77
2024-04-25T06:44:53.254Z,2.50
2024-04-25T06:49:55.751Z,2.65
2024-04-25T06:54:57.465Z,2.08
2024-04-25T07:00:02.256Z,1.80
2024-04-25T07:05:04.074Z,2.00
2024-04-25T07:10:13.443Z,1.77
2024-04-25T07:15:15.109Z,1.75
2024-04-25T07:20:16.828Z,1.63
2024-04-25T07:25:18.609Z,1.88
2024-04-25T07:30:20.269Z,2.15
2024-04-25T07:35:21.973Z,1.95
2024-04-25T07:40:23.664Z,1.90
2024-04-25T07:45:26.046Z,1.67
2024-04-25T07:50:27.694Z,1.50
2024-04-25T07:55:29.339Z,1.40
2024-04-25T08:00:32.531Z,1.70
2024-04-25T08:05:34.356Z,1.38
2024-04-25T08:10:36.491Z,1.80
2024-04-25T08:15:40.802Z,1.58
2024-04-25T08:20:42.540Z,1.60
2024-04-25T08:25:44.248Z,1.30
2024-04-25T08:30:46.061Z,1.27
2024-04-25T08:35:48.044Z,1.40
2024-04-25T08:40:53.559Z,1.40
2024-04-25T08:45:55.303Z,1.20
2024-04-25T08:50:56.949Z,1.30
2024-04-25T08:55:58.636Z,0.98
2024-04-25T09:01:00.732Z,1.08
2024-04-25T09:06:02.860Z,0.88
2024-04-25T09:11:04.629Z,0.90
2024-04-25T09:16:06.572Z,0.57
2024-04-25T09:21:08.260Z,0.90
2024-04-25T09:26:10.421Z,1.00
2024-04-25T09:31:12.679Z,0.85
2024-04-25T09:36:15.017Z,2.05
2024-04-25T09:41:16.731Z,0.70
2024-04-25T09:46:23.845Z,0.70
2024-04-25T09:51:38.299Z,1.00
2024-04-25T09:56:40.104Z,1.00
2024-04-25T10:01:41.860Z,0.63
2024-04-25T10:06:43.645Z,0.98
2024-04-25T10:11:48.303Z,0.70
2024-04-25T10:16:50.016Z,0.98
2024-04-25T10:21:51.696Z,1.10
2024-04-25T10:26:53.375Z,0.70
2024-04-25T10:31:55.070Z,0.95
2024-04-25T10:36:56.737Z,0.65
2024-04-25T10:41:58.440Z,0.70
2024-04-25T10:47:00.115Z,0.50
2024-04-25T10:52:08.067Z,1.08
2024-04-25T10:57:09.721Z,0.68
2024-04-25T11:02:11.515Z,1.20
2024-04-25T11:07:16.537Z,0.65
2024-04-25T11:12:18.343Z,0.90
2024-04-25T11:17:20.145Z,0.70
2024-04-25T11:22:30.243Z,0.60
2024-04-25T11:27:42.574Z,1.10
2024-04-25T11:32:46.004Z,1.08
2024-04-25T11:37:47.810Z,0.90
2024-04-25T11:42:49.447Z,0.77
2024-04-25T11:47:51.221Z,1.05
2024-04-25T11:52:52.898Z,0.98
2024-04-25T11:57:54.745Z,0.70
2024-04-25T12:02:56.554Z,0.90
2024-04-25T12:08:01.829Z,0.93
2024-04-25T12:13:03.605Z,1.05
2024-04-25T12:18:07.316Z,1.10
2024-04-25T12:23:10.483Z,0.95
2024-04-25T12:28:12.120Z,0.80
2024-04-25T12:33:14.038Z,1.17
2024-04-25T12:38:15.789Z,1.13
2024-04-25T12:43:17.521Z,0.90
2024-04-25T12:48:19.346Z,1.08
2024-04-25T12:53:21.143Z,1.00
2024-04-25T12:58:22.816Z,1.02
2024-04-25T13:03:26.880Z,1.15
2024-04-25T13:08:30.076Z,1.00
2024-04-25T13:13:34.169Z,1.20
2024-04-25T13:18:35.986Z,1.48
2024-04-25T13:23:37.961Z,1.30
2024-04-25T13:28:39.750Z,1.20
2024-04-25T13:33:41.583Z,1.10
2024-04-25T13:38:43.490Z,1.27
2024-04-25T13:43:45.176Z,1.48
2024-04-25T13:48:46.906Z,1.10
2024-04-25T13:53:48.661Z,1.10
2024-04-25T13:58:50.711Z,0.90
2024-04-25T14:03:52.449Z,1.40
2024-04-25T14:08:54.113Z,1.20
2024-04-25T14:14:00.529Z,1.20
2024-04-25T14:19:02.201Z,0.85
2024-04-25T14:24:04.003Z,1.30
2024-04-25T14:29:07.224Z,0.75
2024-04-25T14:34:09.058Z,1.45
2024-04-25T14:39:10.922Z,1.20
2024-04-25T14:44:12.608Z,1.35
2024-04-25T14:49:14.238Z,1.13
2024-04-25T14:54:15.870Z,1.05
2024-04-25T14:59:17.565Z,0.98
2024-04-25T15:04:19.288Z,0.90
2024-04-25T15:09:21.206Z,1.00
2024-04-25T15:14:22.910Z,1.10
2024-04-25T15:19:24.574Z,1.08
2024-04-25T15:24:26.546Z,1.38
2024-04-25T15:29:28.567Z,0.90
2024-04-25T15:34:30.313Z,1.20
2024-04-25T15:39:31.959Z,1.27
2024-04-25T15:44:33.723Z,1.20
2024-04-25T15:49:35.361Z,1.02
2024-04-25T15:54:38.301Z,0.93
2024-04-25T15:59:39.975Z,2.00
2024-04-25T16:04:41.849Z,1.95
2024-04-25T16:09:46.987Z,1.00
2024-04-25T16:14:48.740Z,2.15
2024-04-25T16:19:50.492Z,1.58
2024-04-25T16:24:52.224Z,0.80
2024-04-25T16:29:55.141Z,1.10
2024-04-25T16:34:57.258Z,1.27
2024-04-25T16:40:01.065Z,1.23
2024-04-25T16:45:03.210Z,1.00
2024-04-25T16:50:05.142Z,0.80
2024-04-25T16:55:06.861Z,0.88
2024-04-25T17:00:09.287Z,1.05
2024-04-25T17:05:11.197Z,0.88
2024-04-25T17:10:12.906Z,0.90
2024-04-25T17:15:14.555Z,0.77
2024-04-25T17:20:16.334Z,0.60
2024-04-25T17:25:18.122Z,0.85
2024-04-25T17:30:21.830Z,0.90
2024-04-25T17:35:23.577Z,1.00
2024-04-25T17:40:25.248Z,0.85
2024-04-25T17:45:26.997Z,0.57
2024-04-25T17:50:28.934Z,0.47
2024-04-25T17:55:30.569Z,0.57
2024-04-25T18:00:32.260Z,1.20
2024-04-25T18:05:38.179Z,1.60
2024-04-25T18:10:41.012Z,1.00
2024-04-25T18:15:42.825Z,1.00
2024-04-25T18:20:45.519Z,0.73
2024-04-25T18:25:47.656Z,0.82
2024-04-25T18:30:49.306Z,0.90
2024-04-25T18:35:51.044Z,0.90
2024-04-25T18:40:52.764Z,1.85
2024-04-25T18:45:54.473Z,1.20
2024-04-25T18:50:56.135Z,1.10
2024-04-25T18:55:57.800Z,0.93
2024-04-25T19:00:59.495Z,0.82
2024-04-25T19:06:05.594Z,0.60
2024-04-25T19:11:08.019Z,0.60
2024-04-25T19:16:09.830Z,0.47
2024-04-25T19:21:11.607Z,0.40
2024-04-25T19:26:13.307Z,0.70
2024-04-25T19:31:14.936Z,0.55
2024-04-25T19:36:16.649Z,0.60
2024-04-25T19:41:18.405Z,0.60
2024-04-25T19:46:20.038Z,1.00
2024-04-25T19:51:21.674Z,1.10
2024-04-25T19:56:23.319Z,1.10
2024-04-25T20:01:24.998Z,1.23
2024-04-25T20:06:26.633Z,1.20
2024-04-25T20:11:28.327Z,1.17
2024-04-25T20:16:30.715Z,1.20
2024-04-25T20:21:34.030Z,1.13
2024-04-25T20:26:35.789Z,1.45
2024-04-25T20:31:37.432Z,1.70
2024-04-25T20:36:39.176Z,1.73
2024-04-25T20:41:41.336Z,1.50
2024-04-25T20:46:43.028Z,1.20
2024-04-25T20:51:45.232Z,1.20
2024-04-25T20:56:47.058Z,1.20
2024-04-25T21:01:48.765Z,1.58
2024-04-25T21:06:50.414Z,1.80
2024-04-25T21:11:52.103Z,1.77
2024-04-25T21:16:53.798Z,1.70
2024-04-25T21:21:55.489Z,3.00
2024-04-25T21:26:57.219Z,3.58
2024-04-25T21:31:59.495Z,2.72
2024-04-25T21:37:01.235Z,3.00
2024-04-25T21:42:02.887Z,4.35
2024-04-25T21:47:04.633Z,3.72
2024-04-25T21:52:06.319Z,4.47
2024-04-25T21:57:08.520Z,4.18
2024-04-25T22:02:10.147Z,4.30
2024-04-25T22:07:11.808Z,4.85
2024-04-25T22:12:13.650Z,4.78
2024-04-25T22:17:15.426Z,5.07
2024-04-25T22:22:17.060Z,5.07
2024-04-25T22:27:18.738Z,5.53
2024-04-25T22:32:20.451Z,5.68
2024-04-25T22:37:22.154Z,6.43
2024-04-25T22:42:23.788Z,6.10
2024-04-25T22:47:25.456Z,7.22
2024-04-25T22:52:27.155Z,5.93
2024-04-25T22:57:28.981Z,5.75
2024-04-25T23:02:30.683Z,5.45
2024-04-25T23:07:32.338Z,5.78
2024-04-25T23:12:33.969Z,6.78
2024-04-25T23:17:35.690Z,7.13
2024-04-25T23:22:37.374Z,7.43
2024-04-25T23:27:39.055Z,7.45
2024-04-25T23:32:40.782Z,7.70
2024-04-25T23:37:42.493Z,8.02
2024-04-25T23:42:44.171Z,7.72
2024-04-25T23:47:45.858Z,6.47
2024-04-25T23:52:47.528Z,4.60
2024-04-25T23:57:49.183Z,5.68
